Time;durP1;ratioP1;P1;durP2;ratioP2;P2;SDS_P1;SDS_P2;PMS_P1;PMS_P2;Temp;Humidity;BMP_temperature;BMP_pressure;BME280_temperature;BME280_humidity;BME280_pressure;Samples;Min_cycle;Max_cycle;Signal;HPM_P1;HPM_P2
2023/04/25 00:02:36;;;;;;;19.48;5.30;;;;;;;;;;5048303;28;20524;-81
2023/04/25 00:05:03;;;;;;;20.33;5.15;;;;;;;;;;5036738;28;20398;-82
2023/04/25 00:07:29;;;;;;;21.15;5.22;;;;;;;;;;5036381;28;20404;-82
2023/04/25 00:09:55;;;;;;;21.88;5.20;;;;;;;;;;5036874;28;20438;-81
2023/04/25 00:12:36;;;;;;;20.73;5.32;;;;;;;;;;5055188;28;20451;-83
2023/04/25 00:15:16;;;;;;;19.77;5.13;;;;;;;;;;5057496;28;20425;-81
2023/04/25 00:17:47;;;;;;;18.00;4.87;;;;;;;;;;5060617;28;20428;-82
2023/04/25 00:20:14;;;;;;;18.20;5.03;;;;;;;;;;5087823;28;20430;-81
2023/04/25 00:22:46;;;;;;;21.10;5.53;;;;;;;;;;5081665;28;20781;-82
2023/04/25 00:25:13;;;;;;;27.15;6.32;;;;;;;;;;5078154;28;20398;-81
2023/04/25 00:27:39;;;;;;;20.37;5.20;;;;;;;;;;5069809;28;20453;-82
2023/04/25 00:30:06;;;;;;;21.27;5.80;;;;;;;;;;5089923;28;20424;-81
2023/04/25 00:32:32;;;;;;;21.58;5.70;;;;;;;;;;5127108;28;20425;-81
2023/04/25 00:34:58;;;;;;;22.33;5.47;;;;;;;;;;5101826;28;20511;-81
2023/04/25 00:37:27;;;;;;;24.00;5.03;;;;;;;;;;5092896;28;20895;-82
2023/04/25 00:39:55;;;;;;;21.63;5.10;;;;;;;;;;5076849;28;20524;-82
2023/04/25 00:42:21;;;;;;;24.85;5.20;;;;;;;;;;5099465;28;20471;-81
2023/04/25 00:44:48;;;;;;;22.13;4.80;;;;;;;;;;5081430;28;20401;-82
2023/04/25 00:47:17;;;;;;;18.80;5.00;;;;;;;;;;5096831;27;20387;-82
2023/04/25 00:49:43;;;;;;;21.20;5.10;;;;;;;;;;5065082;28;20412;-82
2023/04/25 00:52:10;;;;;;;17.20;4.85;;;;;;;;;;5065110;28;20408;-82
2023/04/25 00:54:36;;;;;;;16.80;4.43;;;;;;;;;;5063030;28;20394;-82
2023/04/25 00:57:02;;;;;;;14.68;4.13;;;;;;;;;;5107929;28;20911;-82
2023/04/25 00:59:30;;;;;;;19.33;4.38;;;;;;;;;;5085335;28;20562;-82
2023/04/25 01:01:59;;;;;;;17.00;4.00;;;;;;;;;;5098604;28;20418;-81
2023/04/25 01:04:25;;;;;;;20.48;4.38;;;;;;;;;;5080015;28;20451;-82
2023/04/25 01:06:52;;;;;;;17.63;4.38;;;;;;;;;;5087063;28;20470;-82
2023/04/25 01:09:18;;;;;;;18.60;4.10;;;;;;;;;;5080365;28;20446;-82
2023/04/25 01:11:44;;;;;;;19.15;4.60;;;;;;;;;;5077498;28;20481;-82
2023/04/25 01:14:10;;;;;;;15.30;3.90;;;;;;;;;;5084966;28;20408;-82
2023/04/25 01:16:36;;;;;;;18.92;4.00;;;;;;;;;;5059890;28;20430;-82
2023/04/25 01:19:11;;;;;;;16.48;4.18;;;;;;;;;;5064380;28;20396;-82
2023/04/25 01:21:37;;;;;;;16.10;3.83;;;;;;;;;;5081935;27;20419;-84
2023/04/25 01:24:10;;;;;;;15.77;3.87;;;;;;;;;;5081738;28;20893;-83
2023/04/25 01:26:40;;;;;;;17.30;3.63;;;;;;;;;;5060962;28;20862;-83
2023/04/25 01:29:06;;;;;;;16.60;4.00;;;;;;;;;;5069525;28;20420;-83
2023/04/25 01:31:33;;;;;;;19.17;4.13;;;;;;;;;;5080594;28;20793;-83
2023/04/25 01:34:10;;;;;;;;;;;;;;;;;;;;;
2023/04/25 01:36:39;;;;;;;21.38;4.50;;;;;;;;;;5087132;27;20425;-82
2023/04/25 01:39:05;;;;;;;16.65;4.40;;;;;;;;;;5100483;28;20415;-83
2023/04/25 01:41:32;;;;;;;18.25;4.45;;;;;;;;;;5082828;28;20426;-83
2023/04/25 01:43:58;;;;;;;12.82;4.07;;;;;;;;;;5069401;28;20408;-82
2023/04/25 01:46:25;;;;;;;18.42;4.13;;;;;;;;;;5079684;28;20428;-83
2023/04/25 01:48:51;;;;;;;19.77;4.67;;;;;;;;;;5097124;28;20484;-82
2023/04/25 01:51:19;;;;;;;16.52;3.95;;;;;;;;;;5080114;28;20408;-82
2023/04/25 01:53:45;;;;;;;21.60;4.32;;;;;;;;;;5084233;28;21058;-82
2023/04/25 01:56:11;;;;;;;17.52;4.72;;;;;;;;;;5060047;28;20398;-82
2023/04/25 01:58:40;;;;;;;19.40;4.43;;;;;;;;;;5074126;28;20468;-81
2023/04/25 02:01:06;;;;;;;22.98;5.00;;;;;;;;;;5061599;28;20476;-80
2023/04/25 02:03:33;;;;;;;20.10;4.18;;;;;;;;;;5077799;27;20407;-80
2023/04/25 02:05:59;;;;;;;18.88;4.10;;;;;;;;;;5062011;28;20417;-81
2023/04/25 02:08:26;;;;;;;18.17;4.35;;;;;;;;;;5087785;28;20484;-81
2023/04/25 02:10:52;;;;;;;23.17;4.20;;;;;;;;;;5068493;28;20420;-82
2023/04/25 02:13:21;;;;;;;17.00;4.05;;;;;;;;;;5077461;28;20416;-81
2023/04/25 02:15:47;;;;;;;15.50;3.85;;;;;;;;;;5086594;28;20426;-82
2023/04/25 02:18:15;;;;;;;18.00;4.18;;;;;;;;;;5076379;28;20439;-81
2023/04/25 02:20:42;;;;;;;20.92;4.55;;;;;;;;;;5092756;28;20754;-82
2023/04/25 02:23:08;;;;;;;15.32;3.60;;;;;;;;;;5087642;28;20404;-81
2023/04/25 02:25:34;;;;;;;18.60;3.95;;;;;;;;;;5062399;28;20392;-82
2023/04/25 02:28:03;;;;;;;13.57;3.40;;;;;;;;;;5069670;28;20410;-82
2023/04/25 02:30:29;;;;;;;19.40;3.70;;;;;;;;;;5045911;28;20427;-80
2023/04/25 02:32:56;;;;;;;16.42;3.38;;;;;;;;;;5096108;28;20415;-82
2023/04/25 02:35:22;;;;;;;13.82;3.20;;;;;;;;;;5108522;28;20461;-82
2023/04/25 02:37:48;;;;;;;14.73;3.75;;;;;;;;;;5093238;28;20420;-81
2023/04/25 02:40:14;;;;;;;18.33;3.22;;;;;;;;;;5062606;28;20464;-82
2023/04/25 02:42:40;;;;;;;12.40;2.92;;;;;;;;;;5079759;28;20400;-80
2023/04/25 02:45:06;;;;;;;13.88;3.00;;;;;;;;;;5079401;28;20397;-81
2023/04/25 02:47:33;;;;;;;15.18;3.20;;;;;;;;;;5062489;28;20401;-81
2023/04/25 02:49:59;;;;;;;15.88;3.47;;;;;;;;;;5087157;28;20754;-82
2023/04/25 02:52:25;;;;;;;13.85;3.05;;;;;;;;;;5077137;28;20396;-82
2023/04/25 02:54:51;;;;;;;15.23;3.10;;;;;;;;;;5078861;28;20811;-81
2023/04/25 02:57:17;;;;;;;14.50;3.45;;;;;;;;;;5082338;28;20398;-82
2023/04/25 02:59:46;;;;;;;14.65;3.25;;;;;;;;;;5088881;28;20420;-81
2023/04/25 03:02:12;;;;;;;11.20;2.80;;;;;;;;;;5078499;27;20920;-81
2023/04/25 03:04:40;;;;;;;12.40;3.08;;;;;;;;;;5072993;28;20892;-81
2023/04/25 03:07:06;;;;;;;10.35;2.53;;;;;;;;;;5075386;28;20916;-81
2023/04/25 03:09:32;;;;;;;7.60;1.98;;;;;;;;;;5066268;27;20924;-82
2023/04/25 03:11:58;;;;;;;7.90;2.22;;;;;;;;;;5098432;27;20402;-81
2023/04/25 03:14:25;;;;;;;11.02;2.22;;;;;;;;;;5076282;27;20402;-82
2023/04/25 03:16:54;;;;;;;9.00;2.10;;;;;;;;;;5075201;28;20417;-81
2023/04/25 03:19:20;;;;;;;9.30;2.03;;;;;;;;;;5059093;28;20507;-82
2023/04/25 03:21:46;;;;;;;8.53;2.10;;;;;;;;;;5058841;28;20441;-81
2023/04/25 03:24:12;;;;;;;7.50;1.90;;;;;;;;;;5069826;28;20418;-81
2023/04/25 03:26:40;;;;;;;7.33;1.97;;;;;;;;;;5085292;27;20394;-81
2023/04/25 03:29:06;;;;;;;5.85;1.70;;;;;;;;;;5081820;27;20757;-82
2023/04/25 03:31:33;;;;;;;8.38;2.17;;;;;;;;;;5051745;28;20453;-81
2023/04/25 03:33:59;;;;;;;7.78;1.98;;;;;;;;;;5075295;28;20406;-82
2023/04/25 03:36:25;;;;;;;7.07;2.08;;;;;;;;;;5093329;28;20563;-81
2023/04/25 03:38:51;;;;;;;10.95;2.50;;;;;;;;;;5096667;28;20428;-81
2023/04/25 03:41:17;;;;;;;9.27;2.10;;;;;;;;;;5097145;27;20451;-82
2023/04/25 03:43:43;;;;;;;10.88;2.58;;;;;;;;;;5097825;27;20395;-82
2023/04/25 03:46:10;;;;;;;13.30;2.47;;;;;;;;;;5093290;27;20410;-80
2023/04/25 03:48:36;;;;;;;10.77;2.55;;;;;;;;;;5073993;28;20432;-81
2023/04/25 03:51:02;;;;;;;11.07;2.60;;;;;;;;;;5092400;28;20410;-81
2023/04/25 03:53:28;;;;;;;8.32;2.40;;;;;;;;;;5087404;28;20423;-81
2023/04/25 03:55:57;;;;;;;9.90;2.63;;;;;;;;;;5060289;28;20907;-81
2023/04/25 03:58:24;;;;;;;11.10;2.50;;;;;;;;;;5121357;27;20430;-81
2023/04/25 04:00:50;;;;;;;9.40;2.20;;;;;;;;;;5069473;28;20914;-82
2023/04/25 04:03:16;;;;;;;8.90;2.05;;;;;;;;;;5078095;28;20457;-82
2023/04/25 04:05:43;;;;;;;13.25;2.55;;;;;;;;;;5065536;28;20413;-81
2023/04/25 04:08:09;;;;;;;12.15;2.67;;;;;;;;;;5094859;28;20428;-82
2023/04/25 04:10:35;;;;;;;12.68;3.00;;;;;;;;;;5096507;28;20503;-81
2023/04/25 04:13:01;;;;;;;10.65;2.50;;;;;;;;;;5075270;28;20906;-81
2023/04/25 04:15:27;;;;;;;9.43;2.20;;;;;;;;;;5078525;28;20889;-82
2023/04/25 04:17:54;;;;;;;6.15;2.05;;;;;;;;;;5078579;28;20408;-82
2023/04/25 04:20:30;;;;;;;6.87;2.17;;;;;;;;;;5071744;28;20514;-82
2023/04/25 04:23:08;;;;;;;9.25;2.22;;;;;;;;;;5048390;28;20413;-82
2023/04/25 04:25:40;;;;;;;8.00;2.50;;;;;;;;;;5083958;28;20483;-83
2023/04/25 04:28:14;;;;;;;10.43;2.55;;;;;;;;;;5081759;28;20396;-82
2023/04/25 04:30:46;;;;;;;8.18;2.47;;;;;;;;;;5083333;27;20471;-82
2023/04/25 04:33:14;;;;;;;7.60;2.22;;;;;;;;;;5116424;27;20485;-82
2023/04/25 04:35:55;;;;;;;9.98;2.40;;;;;;;;;;5106797;28;20426;-82
2023/04/25 04:38:25;;;;;;;7.05;2.33;;;;;;;;;;5064266;28;20488;-81
2023/04/25 04:40:57;;;;;;;12.80;2.80;;;;;;;;;;5067317;27;20490;-82
2023/04/25 04:43:29;;;;;;;11.40;2.60;;;;;;;;;;5056911;28;20414;-82
2023/04/25 04:46:03;;;;;;;12.07;3.03;;;;;;;;;;5068831;27;20501;-82
2023/04/25 04:48:34;;;;;;;12.18;3.30;;;;;;;;;;5081440;27;20497;-82
2023/04/25 04:51:05;;;;;;;15.02;2.85;;;;;;;;;;5091392;28;20420;-82
2023/04/25 04:53:34;;;;;;;11.88;2.80;;;;;;;;;;5064529;28;20400;-82
2023/04/25 04:56:00;;;;;;;10.85;3.40;;;;;;;;;;5093499;28;20442;-82
2023/04/25 04:58:35;;;;;;;11.75;2.95;;;;;;;;;;5081567;28;20403;-83
2023/04/25 05:01:04;;;;;;;9.68;2.47;;;;;;;;;;5078144;28;20425;-82
2023/04/25 05:03:36;;;;;;;13.50;3.00;;;;;;;;;;5080429;28;20468;-82
2023/04/25 05:06:02;;;;;;;14.68;3.35;;;;;;;;;;5087488;28;20895;-82
2023/04/25 05:08:42;;;;;;;12.60;2.97;;;;;;;;;;5077617;28;20771;-82
2023/04/25 05:11:08;;;;;;;14.13;2.78;;;;;;;;;;5079223;28;20420;-81
2023/04/25 05:13:34;;;;;;;14.38;2.95;;;;;;;;;;5076595;28;20420;-81
2023/04/25 05:16:03;;;;;;;11.67;2.83;;;;;;;;;;5095713;28;20420;-80
2023/04/25 05:18:30;;;;;;;10.10;2.92;;;;;;;;;;5084619;28;20397;-82
2023/04/25 05:20:56;;;;;;;15.05;3.17;;;;;;;;;;5087973;28;20452;-84
2023/04/25 05:23:22;;;;;;;15.50;3.20;;;;;;;;;;5075162;28;20396;-85
2023/04/25 05:25:48;;;;;;;12.70;3.07;;;;;;;;;;5078854;28;20409;-84
2023/04/25 05:28:14;;;;;;;15.43;3.38;;;;;;;;;;5080086;27;20418;-85
2023/04/25 05:30:40;;;;;;;13.15;3.20;;;;;;;;;;5086959;27;20789;-84
2023/04/25 05:33:06;;;;;;;16.90;3.50;;;;;;;;;;5091808;28;20428;-82
2023/04/25 05:35:38;;;;;;;12.35;3.03;;;;;;;;;;5062278;28;20417;-82
2023/04/25 05:38:04;;;;;;;13.02;2.92;;;;;;;;;;5065165;28;20568;-81
2023/04/25 05:40:30;;;;;;;11.77;2.45;;;;;;;;;;5078422;28;20414;-81
2023/04/25 05:42:56;;;;;;;13.80;3.08;;;;;;;;;;5095756;27;20777;-80
2023/04/25 05:45:23;;;;;;;11.70;2.70;;;;;;;;;;5071304;28;20417;-79
2023/04/25 05:47:49;;;;;;;11.90;3.05;;;;;;;;;;5082044;28;20414;-80
2023/04/25 05:50:15;;;;;;;11.68;2.67;;;;;;;;;;5096426;27;20420;-80
2023/04/25 05:52:41;;;;;;;14.07;2.90;;;;;;;;;;5080936;28;20430;-80
2023/04/25 05:55:08;;;;;;;11.63;2.78;;;;;;;;;;5080336;28;20416;-80
2023/04/25 05:57:34;;;;;;;18.45;3.20;;;;;;;;;;5086371;28;20427;-80
2023/04/25 06:00:00;;;;;;;10.45;2.75;;;;;;;;;;5085571;27;20503;-79
2023/04/25 06:02:26;;;;;;;11.10;2.75;;;;;;;;;;5082785;28;21049;-80
2023/04/25 06:04:52;;;;;;;13.95;2.90;;;;;;;;;;5075009;27;20423;-82
2023/04/25 06:07:19;;;;;;;10.43;2.53;;;;;;;;;;5080396;27;20411;-81
2023/04/25 06:09:45;;;;;;;11.13;2.90;;;;;;;;;;5089112;27;20411;-82
2023/04/25 06:12:11;;;;;;;11.32;2.20;;;;;;;;;;5084486;28;20835;-83
2023/04/25 06:14:38;;;;;;;12.07;2.50;;;;;;;;;;5106055;28;20428;-83
2023/04/25 06:17:08;;;;;;;12.60;2.28;;;;;;;;;;5115048;27;20419;-83
2023/04/25 06:19:34;;;;;;;7.35;2.20;;;;;;;;;;5099619;28;20889;-83
2023/04/25 06:22:00;;;;;;;11.43;2.58;;;;;;;;;;5070919;28;20420;-83
2023/04/25 06:24:26;;;;;;;14.05;2.50;;;;;;;;;;5088886;28;20420;-83
2023/04/25 06:26:53;;;;;;;12.50;2.40;;;;;;;;;;5099076;27;20715;-83
2023/04/25 06:29:19;;;;;;;15.25;2.72;;;;;;;;;;5092971;27;20416;-83
2023/04/25 06:31:45;;;;;;;11.20;2.40;;;;;;;;;;5079499;28;20424;-82
2023/04/25 06:34:11;;;;;;;7.68;2.30;;;;;;;;;;5097813;28;20792;-83
2023/04/25 06:36:37;;;;;;;8.70;2.13;;;;;;;;;;5088792;27;20420;-81
2023/04/25 06:39:03;;;;;;;8.95;2.15;;;;;;;;;;5102042;28;20427;-84
2023/04/25 06:41:29;;;;;;;6.82;1.63;;;;;;;;;;5086412;28;20424;-83
2023/04/25 06:43:57;;;;;;;7.80;1.90;;;;;;;;;;5074072;28;22181;-82
2023/04/25 06:46:23;;;;;;;7.60;2.00;;;;;;;;;;5059539;28;20424;-83
2023/04/25 06:48:50;;;;;;;6.53;1.90;;;;;;;;;;5056419;27;20421;-83
2023/04/25 06:51:16;;;;;;;7.05;1.70;;;;;;;;;;5074762;27;20422;-83
2023/04/25 06:53:45;;;;;;;10.33;2.07;;;;;;;;;;5086262;28;20904;-82
2023/04/25 06:56:11;;;;;;;11.45;1.90;;;;;;;;;;5101677;28;20420;-82
2023/04/25 06:58:37;;;;;;;9.37;1.70;;;;;;;;;;5068127;28;20475;-82
2023/04/25 07:01:03;;;;;;;11.20;2.13;;;;;;;;;;5081804;28;20423;-82
2023/04/25 07:03:30;;;;;;;8.55;1.80;;;;;;;;;;5094037;27;20417;-80
2023/04/25 07:05:56;;;;;;;7.65;2.40;;;;;;;;;;5070574;28;20893;-83
2023/04/25 07:08:24;;;;;;;11.15;2.60;;;;;;;;;;5061373;28;20465;-83
2023/04/25 07:10:53;;;;;;;10.15;2.78;;;;;;;;;;5078643;28;20404;-82
2023/04/25 07:13:19;;;;;;;11.45;2.30;;;;;;;;;;5086617;28;20447;-82
2023/04/25 07:15:47;;;;;;;9.82;2.20;;;;;;;;;;5088709;27;20427;-83
2023/04/25 07:18:13;;;;;;;10.75;2.38;;;;;;;;;;5093635;28;20446;-82
2023/04/25 07:20:39;;;;;;;7.30;2.20;;;;;;;;;;5075429;28;20474;-82
2023/04/25 07:23:06;;;;;;;10.03;2.43;;;;;;;;;;5073219;28;20417;-82
2023/04/25 07:25:35;;;;;;;9.63;2.13;;;;;;;;;;5061672;27;20441;-83
2023/04/25 07:28:01;;;;;;;12.07;2.30;;;;;;;;;;5086348;28;20476;-82
2023/04/25 07:30:29;;;;;;;14.35;3.20;;;;;;;;;;5054257;28;20424;-81
2023/04/25 07:32:55;;;;;;;11.35;2.58;;;;;;;;;;5091442;28;20439;-83
2023/04/25 07:35:24;;;;;;;9.88;2.45;;;;;;;;;;5077800;28;20410;-83
2023/04/25 07:37:56;;;;;;;13.85;2.13;;;;;;;;;;5069907;28;20563;-85
2023/04/25 07:40:23;;;;;;;9.60;2.13;;;;;;;;;;5067113;28;20452;-82
2023/04/25 07:42:52;;;;;;;9.95;1.80;;;;;;;;;;5061720;28;20394;-82
2023/04/25 07:45:24;;;;;;;9.38;2.63;;;;;;;;;;5104193;28;20419;-81
2023/04/25 07:47:51;;;;;;;7.97;1.60;;;;;;;;;;5084796;28;20522;-81
2023/04/25 07:50:19;;;;;;;11.77;1.70;;;;;;;;;;5072311;28;20421;-81
2023/04/25 07:52:50;;;;;;;8.10;1.80;;;;;;;;;;5064138;28;20408;-81
2023/04/25 07:55:22;;;;;;;9.03;1.97;;;;;;;;;;5073374;28;20420;-82
2023/04/25 07:57:51;;;;;;;8.10;1.80;;;;;;;;;;5059793;28;20902;-82
2023/04/25 08:00:20;;;;;;;5.80;1.35;;;;;;;;;;5106469;28;20418;-83
2023/04/25 08:02:51;;;;;;;7.40;2.00;;;;;;;;;;5085124;28;20435;-81
2023/04/25 08:05:17;;;;;;;6.10;1.70;;;;;;;;;;5071696;28;20425;-83
2023/04/25 08:07:43;;;;;;;9.70;1.88;;;;;;;;;;5091198;28;20431;-81
2023/04/25 08:10:10;;;;;;;8.63;1.95;;;;;;;;;;5072483;28;20418;-82
2023/04/25 08:12:36;;;;;;;9.48;2.70;;;;;;;;;;5064928;28;20411;-82
2023/04/25 08:15:02;;;;;;;9.45;2.10;;;;;;;;;;5055874;28;20415;-83
2023/04/25 08:17:28;;;;;;;8.10;1.65;;;;;;;;;;5093334;28;20768;-82
2023/04/25 08:19:55;;;;;;;8.95;2.10;;;;;;;;;;5088505;28;20426;-82
2023/04/25 08:22:21;;;;;;;9.15;2.13;;;;;;;;;;5078413;28;20506;-82
2023/04/25 08:24:47;;;;;;;8.93;1.98;;;;;;;;;;5094909;28;20433;-81
2023/04/25 08:27:13;;;;;;;9.38;2.05;;;;;;;;;;5082150;28;20404;-80
2023/04/25 08:29:42;;;;;;;10.52;3.83;;;;;;;;;;5085878;28;20431;-81
2023/04/25 08:32:08;;;;;;;7.32;1.83;;;;;;;;;;5077869;28;20899;-81
2023/04/25 08:34:36;;;;;;;9.57;2.42;;;;;;;;;;5080114;28;20481;-81
2023/04/25 08:37:04;;;;;;;7.40;1.90;;;;;;;;;;5066178;28;20456;-81
2023/04/25 08:39:30;;;;;;;6.05;1.42;;;;;;;;;;5075986;28;20430;-82
2023/04/25 08:41:56;;;;;;;5.20;1.40;;;;;;;;;;5061217;28;20429;-82
2023/04/25 08:44:23;;;;;;;10.77;4.22;;;;;;;;;;5089116;28;20396;-82
2023/04/25 08:46:52;;;;;;;7.82;1.73;;;;;;;;;;5068634;28;20416;-83
2023/04/25 08:49:19;;;;;;;8.95;1.50;;;;;;;;;;5061813;28;20440;-83
2023/04/25 08:51:50;;;;;;;6.78;1.50;;;;;;;;;;5084755;28;20413;-82
2023/04/25 08:54:17;;;;;;;7.78;1.40;;;;;;;;;;5103189;28;20426;-82
2023/04/25 08:56:47;;;;;;;7.63;2.70;;;;;;;;;;5070577;28;20422;-81
2023/04/25 08:59:14;;;;;;;9.38;1.98;;;;;;;;;;5105808;28;20433;-82
2023/04/25 09:01:40;;;;;;;5.80;1.40;;;;;;;;;;5071606;28;21605;-81
2023/04/25 09:04:07;;;;;;;7.28;1.45;;;;;;;;;;5078788;28;20859;-79
2023/04/25 09:06:34;;;;;;;5.00;1.55;;;;;;;;;;5075414;28;20490;-81
2023/04/25 09:09:07;;;;;;;6.15;2.30;;;;;;;;;;5080816;28;20408;-82
2023/04/25 09:11:34;;;;;;;10.48;3.13;;;;;;;;;;5091547;28;20419;-81
2023/04/25 09:14:15;;;;;;;7.40;2.60;;;;;;;;;;5082246;27;20412;-79
2023/04/25 09:17:02;;;;;;;6.83;1.83;;;;;;;;;;5089097;28;20464;-83
2023/04/25 09:19:39;;;;;;;8.98;2.28;;;;;;;;;;5082715;27;20750;-80
2023/04/25 09:22:06;;;;;;;8.03;1.80;;;;;;;;;;5055041;28;20416;-81
2023/04/25 09:24:36;;;;;;;7.68;2.05;;;;;;;;;;5078137;28;20424;-81
2023/04/25 09:27:26;;;;;;;6.78;2.10;;;8.00;99.90;;;;;;5071288;27;20425;-83
2023/04/25 09:29:59;;;;;;;14.68;2.38;;;;;;;;;;5080123;28;20421;-82
2023/04/25 09:32:28;;;;;;;6.82;1.90;;;;;;;;;;5084193;27;20438;-83
2023/04/25 09:34:55;;;;;;;9.20;1.92;;;;;;;;;;5089115;27;20406;-82
2023/04/25 09:37:28;;;;;;;9.45;2.20;;;;;;;;;;5076657;28;20441;-82
2023/04/25 09:39:55;;;;;;;11.27;2.70;;;;;;;;;;5074487;28;20906;-81
2023/04/25 09:42:26;;;;;;;11.18;2.90;;;;;;;;;;5066382;28;20429;-82
2023/04/25 09:44:55;;;;;;;11.57;2.58;;;;;;;;;;5078817;27;20400;-82
2023/04/25 09:47:23;;;;;;;10.05;2.50;;;;;;;;;;5078904;28;20428;-83
2023/04/25 09:49:50;;;;;;;11.73;2.55;;;;;;;;;;5089126;27;20414;-82
2023/04/25 09:52:17;;;;;;;7.28;2.03;;;;;;;;;;5072544;28;20451;-81
2023/04/25 09:54:43;;;;;;;11.93;2.70;;;;;;;;;;5075647;28;20933;-81
2023/04/25 09:57:14;;;;;;;8.98;2.83;;;;;;;;;;5060473;28;20523;-82
2023/04/25 09:59:43;;;;;;;6.10;1.65;;;;;;;;;;5091233;28;20416;-82
2023/04/25 10:02:13;;;;;;;5.40;1.55;;;;;;;;;;5078127;28;20422;-82
2023/04/25 10:04:39;;;;;;;9.20;1.85;;;;;;;;;;5077348;28;20479;-81
2023/04/25 10:07:09;;;;;;;6.93;1.77;;;;;;;;;;5068901;28;20454;-81
2023/04/25 10:09:39;;;;;;;7.03;1.70;;;;;;;;;;5094354;27;20404;-81
2023/04/25 10:12:08;;;;;;;7.30;1.73;;;;;;;;;;5089513;28;20935;-82
2023/04/25 10:14:35;;;;;;;7.03;1.92;;;;;;;;;;5077682;28;20991;-80
2023/04/25 10:17:02;;;;;;;9.30;1.80;;;;;;;;;;5073707;28;20490;-81
2023/04/25 10:19:31;;;;;;;7.53;1.63;;;;;;;;;;5095618;28;20915;-81
2023/04/25 10:22:08;;;;;;;6.00;1.97;;;;;;;;;;5075325;28;20780;-82
2023/04/25 10:24:36;;;;;;;7.90;2.28;;;;;;;;;;5078813;28;20416;-82
2023/04/25 10:27:03;;;;;;;8.43;2.10;;;;;;;;;;5083409;27;20419;-82
2023/04/25 10:29:29;;;;;;;7.22;1.90;;;;;;;;;;5089878;27;20413;-82
2023/04/25 10:31:55;;;;;;;10.48;2.30;;;;;;;;;;5104428;28;20416;-83
2023/04/25 10:34:25;;;;;;;8.95;2.45;;;;;;;;;;5092959;27;20414;-82
2023/04/25 10:36:53;;;;;;;10.57;2.42;;;;;;;;;;5077424;27;20425;-84
2023/04/25 10:39:27;;;;;;;12.60;2.00;;;;;;;;;;5088623;28;20457;-82
2023/04/25 10:41:56;;;;;;;10.45;2.00;;;;;;;;;;5075691;28;20434;-82
2023/04/25 10:44:22;;;;;;;9.90;2.67;;;;;;;;;;5084174;27;20407;-82
2023/04/25 10:46:48;;;;;;;11.55;2.20;;;;;;;;;;5109537;27;20472;-82
2023/04/25 10:49:31;;;;;;;7.90;1.98;;;;;;;;;;5075923;27;20896;-80
2023/04/25 10:52:17;;;;;;;5.20;1.40;;;;;;;;;;5084234;28;20736;-82
2023/04/25 10:54:43;;;;;;;6.88;1.40;;;;;;;;;;5086687;27;20909;-80
2023/04/25 10:57:30;;;;;;;6.03;1.55;;;8.30;99.90;;;;;;5090329;27;20937;-81
2023/04/25 11:00:16;;;;;;;9.65;1.70;;;;;;;;;;5110469;27;20471;-81
2023/04/25 11:02:44;;;;;;;8.00;2.07;;;;;;;;;;5076647;28;20873;-83
2023/04/25 11:05:11;;;;;;;10.52;1.80;;;;;;;;;;5109262;27;20421;-84
2023/04/25 11:07:46;;;;;;;11.70;2.30;;;;;;;;;;5091648;28;20756;-84
2023/04/25 11:10:12;;;;;;;9.70;2.50;;;;;;;;;;5105205;28;20767;-83
2023/04/25 11:12:38;;;;;;;8.88;2.20;;;;;;;;;;5049574;27;20423;-83
2023/04/25 11:15:05;;;;;;;9.57;2.38;;;;;;;;;;5119800;27;20405;-82
2023/04/25 11:17:32;;;;;;;10.25;2.13;;;;;;;;;;5122603;28;20412;-83
2023/04/25 11:19:58;;;;;;;9.37;2.03;;;;;;;;;;5131777;27;20414;-83
2023/04/25 11:22:24;;;;;;;9.73;2.30;;;;;;;;;;5114050;27;20410;-83
2023/04/25 11:24:50;;;;;;;13.25;2.58;;;;;;;;;;5085240;27;20416;-83
2023/04/25 11:27:17;;;;;;;9.23;2.28;;;;;;;;;;5115257;27;20405;-82
2023/04/25 11:29:43;;;;;;;8.07;1.70;;;;;;;;;;5109314;28;20491;-82
2023/04/25 11:32:09;;;;;;;12.18;2.40;;;;;;;;;;5083093;27;20437;-82
2023/04/25 11:34:35;;;;;;;5.40;2.10;;;;;;;;;;5081517;27;20954;-82
2023/04/25 11:37:02;;;;;;;7.85;2.35;;;;;;;;;;5102546;27;20449;-82
2023/04/25 11:39:28;;;;;;;9.35;2.97;;;;;;;;;;5080445;28;20424;-82
2023/04/25 11:41:55;;;;;;;7.53;3.50;;;;;;;;;;5058319;28;20913;-83
2023/04/25 11:44:21;;;;;;;10.48;3.38;;;;;;;;;;5078836;28;20869;-81
2023/04/25 11:46:47;;;;;;;8.77;2.10;;;;;;;;;;5070037;28;20412;-81
2023/04/25 11:49:14;;;;;;;9.10;3.10;;;;;;;;;;5094768;28;20504;-82
2023/04/25 11:51:45;;;;;;;10.40;3.07;;;9.10;99.90;;;;;;5094581;27;20422;-81
2023/04/25 11:54:12;;;;;;;8.98;1.88;;;;;;;;;;5060756;28;21519;-82
2023/04/25 11:56:42;;;;;;;6.03;2.20;;;;;;;;;;5089714;28;20477;-81
2023/04/25 11:59:08;;;;;;;6.80;2.25;;;;;;;;;;5094531;28;20400;-82
2023/04/25 12:01:35;;;;;;;5.47;1.65;;;;;;;;;;5075971;28;20422;-81
2023/04/25 12:04:20;;;;;;;4.05;1.80;;;;;;;;;;5074888;28;20408;-81
2023/04/25 12:06:50;;;;;;;5.75;1.73;;;;;;;;;;5076301;28;20406;-83
2023/04/25 12:09:34;;;;;;;3.80;1.60;;;;;;;;;;5085078;28;20444;-82
2023/04/25 12:12:05;;;;;;;4.80;1.77;;;;;;;;;;5079159;28;20561;-81
2023/04/25 12:14:33;;;;;;;4.68;1.55;;;;;;;;;;5080152;28;20411;-80
2023/04/25 12:17:00;;;;;;;5.45;1.50;;;;;;;;;;5071057;28;20506;-81
2023/04/25 12:19:26;;;;;;;4.32;1.38;;;;;;;;;;5075213;28;20416;-82
2023/04/25 12:21:52;;;;;;;5.93;1.50;;;;;;;;;;5071462;28;20422;-83
2023/04/25 12:24:27;;;;;;;8.25;1.52;;;;;;;;;;5050991;28;20440;-82
2023/04/25 12:26:59;;;;;;;7.95;1.83;;;;;;;;;;5089679;28;20491;-82
2023/04/25 12:29:26;;;;;;;8.50;2.10;;;;;;;;;;5072717;28;20488;-80
2023/04/25 12:31:52;;;;;;;7.05;1.80;;;;;;;;;;5072881;28;20426;-80
2023/04/25 12:34:19;;;;;;;7.47;2.17;;;;;;;;;;5068294;28;20442;-80
2023/04/25 12:36:45;;;;;;;9.00;1.63;;;;;;;;;;5112665;28;20498;-81
2023/04/25 12:39:17;;;;;;;6.70;1.83;;;;;;;;;;5087697;27;20418;-80
2023/04/25 12:41:44;;;;;;;7.93;1.87;;;;;;;;;;5085810;28;20474;-81
2023/04/25 12:44:10;;;;;;;6.38;1.58;;;;;;;;;;5069213;27;20862;-80
2023/04/25 12:46:37;;;;;;;6.07;1.92;;;;;;;;;;5072503;28;20423;-81
2023/04/25 12:49:03;;;;;;;8.77;2.50;;;;;;;;;;5106882;27;20863;-81
2023/04/25 12:51:30;;;;;;;7.57;1.80;;;;;;;;;;5061098;28;20905;-81
2023/04/25 12:53:56;;;;;;;6.72;2.50;;;;;;;;;;5074600;27;20418;-81
2023/04/25 12:56:22;;;;;;;10.48;2.42;;;;;;;;;;5078927;28;20468;-81
2023/04/25 12:58:48;;;;;;;9.23;2.10;;;;;;;;;;5077256;28;20443;-80
2023/04/25 13:01:15;;;;;;;8.38;2.17;;;;;;;;;;5073929;28;20525;-81
2023/04/25 13:03:41;;;;;;;8.70;1.98;;;;;;;;;;5085386;28;20459;-82
2023/04/25 13:06:07;;;;;;;11.23;2.20;;;;;;;;;;5094868;28;20400;-81
2023/04/25 13:08:34;;;;;;;8.55;1.70;;;;;;;;;;5067393;28;20445;-81
2023/04/25 13:11:01;;;;;;;6.70;1.77;;;;;;;;;;5096318;27;20410;-81
2023/04/25 13:13:28;;;;;;;9.07;1.75;;;;;;;;;;5118041;27;20466;-80
2023/04/25 13:15:54;;;;;;;6.97;1.75;;;;;;;;;;5081786;28;20427;-80
2023/04/25 13:18:20;;;;;;;6.88;1.50;;;;;;;;;;5091751;28;20427;-81
2023/04/25 13:20:46;;;;;;;6.43;1.67;;;;;;;;;;5062472;28;20421;-81
2023/04/25 13:23:12;;;;;;;8.25;1.70;;;;;;;;;;5082919;28;20411;-81
2023/04/25 13:25:39;;;;;;;6.95;1.90;;;;;;;;;;5088629;28;20420;-80
2023/04/25 13:28:05;;;;;;;7.20;1.97;;;;;;;;;;5092604;28;20557;-80
2023/04/25 13:30:31;;;;;;;10.77;2.10;;;;;;;;;;5075003;28;20421;-81
2023/04/25 13:33:02;;;;;;;6.82;1.80;;;;;;;;;;5089953;28;20429;-80
2023/04/25 13:35:28;;;;;;;7.90;1.85;;;;;;;;;;5053664;28;20413;-81
2023/04/25 13:37:55;;;;;;;8.05;1.70;;;;;;;;;;5071537;28;20417;-81
2023/04/25 13:40:24;;;;;;;9.83;2.27;;;;;;;;;;5060415;28;20446;-80
2023/04/25 13:42:50;;;;;;;6.50;1.88;;;;;;;;;;5091525;28;20934;-81
2023/04/25 13:45:17;;;;;;;8.15;2.53;;;;;;;;;;5086844;28;20412;-81
2023/04/25 13:47:43;;;;;;;10.93;2.30;;;;;;;;;;5066750;27;20413;-82
2023/04/25 13:50:09;;;;;;;8.57;2.30;;;;;;;;;;5070238;28;20428;-81
2023/04/25 13:52:35;;;;;;;5.38;2.00;;;;;;;;;;5091010;28;20407;-81
2023/04/25 13:55:03;;;;;;;7.95;2.42;;;;;;;;;;5082773;28;20429;-82
2023/04/25 13:57:32;;;;;;;6.82;2.00;;;;;;;;;;5055171;28;20565;-82
2023/04/25 13:59:59;;;;;;;8.98;2.38;;;;;;;;;;5101166;28;20421;-83
2023/04/25 14:02:25;;;;;;;9.48;2.08;;;;;;;;;;5075432;27;20420;-82
2023/04/25 14:04:52;;;;;;;8.63;2.10;;;;;;;;;;5108532;28;20413;-82
2023/04/25 14:07:19;;;;;;;10.30;2.43;;;;;;;;;;5067434;27;20412;-82
2023/04/25 14:09:45;;;;;;;7.18;2.10;;;;;;;;;;5060836;27;20949;-82
2023/04/25 14:12:11;;;;;;;7.07;2.00;;;;;;;;;;5080875;28;20831;-83
2023/04/25 14:14:37;;;;;;;8.30;2.10;;;;;;;;;;5067042;28;20428;-83
2023/04/25 14:17:04;;;;;;;8.13;1.95;;;;;;;;;;5090624;28;20404;-81
2023/04/25 14:19:30;;;;;;;8.07;2.20;;;;;;;;;;5110052;28;20908;-80
2023/04/25 14:21:56;;;;;;;14.60;2.28;;;;;;;;;;5089568;28;20416;-82
2023/04/25 14:24:22;;;;;;;8.43;1.92;;;;;;;;;;5105832;27;20408;-82
2023/04/25 14:26:48;;;;;;;6.88;1.95;;;;;;;;;;5075762;28;20932;-82
2023/04/25 14:29:14;;;;;;;9.90;2.28;;;;;;;;;;5080193;28;20431;-83
2023/04/25 14:31:40;;;;;;;6.57;2.00;;;;;;;;;;5066799;28;20422;-83
2023/04/25 14:34:07;;;;;;;8.65;1.90;;;;;;;;;;5084727;27;20467;-82
2023/04/25 14:36:33;;;;;;;7.47;1.63;;;;;;;;;;5057383;28;20418;-83
2023/04/25 14:38:59;;;;;;;5.40;1.50;;;;;;;;;;5083358;27;20527;-82
2023/04/25 14:41:26;;;;;;;6.90;1.67;;;;;;;;;;5071469;28;20422;-82